createdAt,value
2017-11-17T00:00:20.435Z,0
2017-11-17T00:01:20.699Z,0
2017-11-17T00:02:19.846Z,0
2017-11-17T00:03:20.103Z,0
2017-11-17T00:04:19.814Z,0
2017-11-17T00:05:20.670Z,0
2017-11-17T00:06:20.329Z,0
2017-11-17T00:07:20.039Z,0
2017-11-17T00:08:20.019Z,0
2017-11-17T00:09:19.731Z,0
2017-11-17T00:10:19.715Z,0
2017-11-17T00:11:19.693Z,0
2017-11-17T00:12:20.292Z,0
2017-11-17T00:13:19.940Z,0
2017-11-17T00:14:20.190Z,0
2017-11-17T00:15:19.899Z,0
2017-11-17T00:16:19.616Z,0
2017-11-17T00:17:19.874Z,0
2017-11-17T00:18:19.895Z,0
2017-11-17T00:19:19.555Z,0
2017-11-17T00:20:20.105Z,0
2017-11-17T00:21:19.797Z,0
2017-11-17T00:22:20.053Z,0
2017-11-17T00:23:19.760Z,0
2017-11-17T00:24:20.025Z,0
2017-11-17T00:25:19.746Z,0
2017-11-17T00:26:19.986Z,0
2017-11-17T00:27:19.968Z,0
2017-11-17T00:28:19.960Z,0
2017-11-17T00:29:20.215Z,0
2017-11-17T00:30:19.641Z,0
2017-11-17T00:31:19.918Z,0
2017-11-17T00:32:19.876Z,0
2017-11-17T00:33:19.588Z,0
2017-11-17T00:34:19.863Z,0
2017-11-17T00:35:19.552Z,0
2017-11-17T00:36:19.806Z,0
2017-11-17T00:37:19.790Z,0
2017-11-17T00:38:19.798Z,0
2017-11-17T00:39:19.761Z,0
2017-11-17T00:40:19.186Z,0
2017-11-17T00:41:19.716Z,0
2017-11-17T00:42:19.435Z,0
2017-11-17T00:43:20.017Z,0
2017-11-17T00:44:19.117Z,0
2017-11-17T00:45:19.940Z,0
2017-11-17T00:46:19.368Z,0
2017-11-17T00:47:19.109Z,0
2017-11-17T00:48:19.066Z,0
2017-11-17T00:49:19.581Z,0
2017-11-17T00:50:19.565Z,0
2017-11-17T00:51:19.572Z,0
2017-11-17T00:52:19.000Z,0
2017-11-17T00:53:19.524Z,0
2017-11-17T00:54:19.785Z,0
2017-11-17T00:55:19.473Z,0
2017-11-17T00:56:19.195Z,0
2017-11-17T00:57:19.716Z,0
2017-11-17T00:58:18.876Z,0
2017-11-17T00:59:19.145Z,0
2017-11-17T01:00:19.137Z,0
2017-11-17T01:01:19.392Z,0
2017-11-17T01:02:19.357Z,0
2017-11-17T01:03:19.064Z,0
2017-11-17T01:04:19.084Z,0
2017-11-17T01:05:18.753Z,0
2017-11-17T01:06:19.031Z,0
2017-11-17T01:07:19.548Z,0
2017-11-17T01:08:18.723Z,0
2017-11-17T01:09:19.508Z,0
2017-11-17T01:10:18.947Z,0
2017-11-17T01:11:18.925Z,0
2017-11-17T01:12:19.461Z,0
2017-11-17T01:13:18.894Z,0
2017-11-17T01:14:19.171Z,0
2017-11-17T01:15:19.131Z,0
2017-11-17T01:16:18.581Z,0
2017-11-17T01:17:19.139Z,0
2017-11-17T01:18:18.736Z,0
2017-11-17T01:19:18.809Z,0
2017-11-17T01:20:19.362Z,0
2017-11-17T01:21:19.053Z,0
2017-11-17T01:22:18.739Z,0
2017-11-17T01:23:18.449Z,0
2017-11-17T01:24:18.725Z,0
2017-11-17T01:25:19.282Z,0
2017-11-17T01:26:19.267Z,0
2017-11-17T01:27:18.380Z,0
2017-11-17T01:28:18.378Z,0
2017-11-17T01:29:19.172Z,0
2017-11-17T01:30:18.880Z,0
2017-11-17T01:31:18.605Z,0
2017-11-17T01:32:18.598Z,0
2017-11-17T01:33:18.843Z,0
2017-11-17T01:34:18.552Z,0
2017-11-17T01:35:18.249Z,0
2017-11-17T01:36:18.771Z,0
2017-11-17T01:37:18.203Z,0
2017-11-17T01:38:18.737Z,0
2017-11-17T01:39:18.746Z,0
2017-11-17T01:40:18.433Z,0
2017-11-17T01:41:18.426Z,0
2017-11-17T01:42:18.945Z,0
2017-11-17T01:44:18.942Z,0
2017-11-17T01:45:18.619Z,0
2017-11-17T01:46:18.330Z,0
2017-11-17T01:47:18.315Z,0
2017-11-17T01:48:18.852Z,0
2017-11-17T01:49:18.279Z,0
2017-11-17T01:50:18.541Z,0
2017-11-17T01:51:18.531Z,0
2017-11-17T01:52:18.237Z,0
2017-11-17T01:53:18.787Z,0
2017-11-17T01:54:17.920Z,0
2017-11-17T01:55:18.194Z,0
2017-11-17T01:56:18.440Z,0
2017-11-17T01:57:18.434Z,0
2017-11-17T01:58:18.404Z,0
2017-11-17T01:59:18.123Z,0
2017-11-17T02:00:18.098Z,0
2017-11-17T02:01:18.673Z,0
2017-11-17T02:02:18.627Z,0
2017-11-17T02:03:18.043Z,0
2017-11-17T02:04:18.054Z,0
2017-11-17T02:05:17.752Z,0
2017-11-17T02:06:18.271Z,0
2017-11-17T02:07:18.000Z,0
2017-11-17T02:08:18.241Z,0
2017-11-17T02:09:18.507Z,0
2017-11-17T02:10:18.216Z,0
2017-11-17T02:11:24.528Z,0
2017-11-17T02:12:18.170Z,0
2017-11-17T02:13:17.876Z,0
2017-11-17T02:14:17.859Z,0
2017-11-17T02:15:17.568Z,0
2017-11-17T02:16:18.101Z,0
2017-11-17T02:17:18.391Z,0
2017-11-17T02:18:17.789Z,0
2017-11-17T02:19:17.501Z,0
2017-11-17T02:20:18.052Z,0
2017-11-17T02:21:18.053Z,0
2017-11-17T02:22:17.742Z,0
2017-11-17T02:23:17.446Z,0
2017-11-17T02:24:17.708Z,0
2017-11-17T02:25:17.691Z,0
2017-11-17T02:26:17.950Z,0
2017-11-17T02:27:17.378Z,0
2017-11-17T02:28:17.384Z,0
2017-11-17T02:29:18.187Z,0
2017-11-17T02:30:18.170Z,0
2017-11-17T02:31:17.870Z,0
2017-11-17T02:32:17.866Z,0
2017-11-17T02:33:17.830Z,0
2017-11-17T02:34:17.265Z,0
2017-11-17T02:35:18.077Z,0
2017-11-17T02:36:17.803Z,0
2017-11-17T02:37:18.061Z,0
2017-11-17T02:38:17.472Z,0
2017-11-17T02:39:17.752Z,0
2017-11-17T02:40:17.442Z,0
2017-11-17T02:41:17.709Z,0
2017-11-17T02:42:17.129Z,0
2017-11-17T02:43:17.391Z,0
2017-11-17T02:44:17.988Z,0
2017-11-17T02:45:18.498Z,0
2017-11-17T02:46:17.339Z,0
2017-11-17T02:47:17.601Z,0
2017-11-17T02:48:17.605Z,0
2017-11-17T02:49:17.327Z,0
2017-11-17T02:50:17.572Z,0
2017-11-17T02:51:17.263Z,0
2017-11-17T02:52:17.525Z,0
2017-11-17T02:53:17.536Z,0
2017-11-17T02:54:16.932Z,0
2017-11-17T02:55:17.190Z,0
2017-11-17T02:56:17.204Z,0
2017-11-17T02:57:17.182Z,0
2017-11-17T02:58:17.140Z,0
2017-11-17T02:59:17.409Z,0
2017-11-17T03:00:17.113Z,0
2017-11-17T03:01:17.116Z,0
2017-11-17T03:02:16.796Z,0
2017-11-17T03:03:17.093Z,0
2017-11-17T03:04:17.057Z,0
2017-11-17T03:05:17.040Z,0
2017-11-17T03:06:17.009Z,0
2017-11-17T03:07:16.717Z,0
2017-11-17T03:08:17.829Z,0
2017-11-17T03:09:16.954Z,0
2017-11-17T03:10:16.943Z,0
2017-11-17T03:11:16.650Z,0
2017-11-17T03:12:17.204Z,0
2017-11-17T03:13:16.899Z,0
2017-11-17T03:14:17.189Z,0
2017-11-17T03:15:17.439Z,0
2017-11-17T03:16:17.730Z,0
2017-11-17T03:17:17.107Z,0
2017-11-17T03:18:17.682Z,0
2017-11-17T03:19:17.085Z,0
2017-11-17T03:20:16.800Z,0
2017-11-17T03:21:17.040Z,0
2017-11-17T03:22:16.475Z,0
2017-11-17T03:23:16.736Z,0
2017-11-17T03:24:17.004Z,0
2017-11-17T03:25:16.769Z,0
2017-11-17T03:26:17.272Z,0
2017-11-17T03:27:16.663Z,0
2017-11-17T03:28:17.613Z,0
2017-11-17T03:29:16.655Z,0
2017-11-17T03:30:17.180Z,0
2017-11-17T03:31:16.901Z,0
2017-11-17T03:32:17.439Z,0
2017-11-17T03:33:16.861Z,0
2017-11-17T03:34:16.284Z,0
2017-11-17T03:35:16.541Z,0
2017-11-17T03:36:16.524Z,0
2017-11-17T03:37:17.086Z,0
2017-11-17T03:38:16.815Z,0
2017-11-17T03:39:16.760Z,0
2017-11-17T03:40:16.734Z,0
2017-11-17T03:41:16.166Z,0
2017-11-17T03:42:17.286Z,0
2017-11-17T03:43:16.696Z,0
2017-11-17T03:44:16.390Z,0
2017-11-17T03:45:16.926Z,0
2017-11-17T03:46:16.368Z,0
2017-11-17T03:47:16.366Z,0
2017-11-17T03:48:16.346Z,0
2017-11-17T03:49:16.590Z,0
2017-11-17T03:50:16.574Z,0
2017-11-17T03:51:16.008Z,0
2017-11-17T03:52:16.267Z,0
2017-11-17T03:53:16.246Z,0
2017-11-17T03:54:16.525Z,0
2017-11-17T03:55:16.767Z,0
2017-11-17T03:56:16.504Z,0
2017-11-17T03:57:16.489Z,0
2017-11-17T03:58:16.174Z,0
2017-11-17T03:59:15.871Z,0
2017-11-17T04:00:16.426Z,0
2017-11-17T04:01:16.398Z,0
2017-11-17T04:02:16.932Z,0
2017-11-17T04:03:16.091Z,0
2017-11-17T04:04:16.340Z,0
2017-11-17T04:05:15.780Z,0
2017-11-17T04:06:15.766Z,0
2017-11-17T04:07:16.304Z,0
2017-11-17T04:08:16.006Z,0
2017-11-17T04:09:16.298Z,0
2017-11-17T04:10:16.254Z,0
2017-11-17T04:11:16.248Z,0
2017-11-17T04:12:16.218Z,0
2017-11-17T04:13:16.206Z,0
2017-11-17T04:14:15.632Z,0
2017-11-17T04:15:16.171Z,0
2017-11-17T04:16:15.881Z,0
2017-11-17T04:17:16.138Z,0
2017-11-17T04:18:16.696Z,0
2017-11-17T04:19:15.839Z,0
2017-11-17T04:20:16.384Z,0
2017-11-17T04:21:16.080Z,0
2017-11-17T04:22:15.779Z,0
2017-11-17T04:23:15.766Z,0
2017-11-17T04:24:15.750Z,0
2017-11-17T04:25:16.053Z,0
2017-11-17T04:26:16.559Z,0
2017-11-17T04:27:16.263Z,0
2017-11-17T04:28:15.977Z,0
2017-11-17T04:29:16.240Z,0
2017-11-17T04:30:16.224Z,0
2017-11-17T04:31:15.366Z,0
2017-11-17T04:32:15.931Z,0
2017-11-17T04:33:15.341Z,0
2017-11-17T04:34:16.180Z,0
2017-11-17T04:35:15.856Z,0
2017-11-17T04:36:15.838Z,0
2017-11-17T04:37:15.848Z,0
2017-11-17T04:38:15.528Z,0
2017-11-17T04:39:15.783Z,0
2017-11-17T04:40:15.494Z,0
2017-11-17T04:41:15.788Z,0
2017-11-17T04:42:15.210Z,0
2017-11-17T04:43:15.170Z,0
2017-11-17T04:44:15.718Z,0
2017-11-17T04:45:15.715Z,0
2017-11-17T04:46:15.135Z,0
2017-11-17T04:47:15.397Z,0
2017-11-17T04:48:15.371Z,0
2017-11-17T04:49:15.643Z,0
2017-11-17T04:50:15.624Z,0
2017-11-17T04:51:15.618Z,0
2017-11-17T04:52:15.054Z,0
2017-11-17T04:53:15.844Z,0
2017-11-17T04:54:15.550Z,0
2017-11-17T04:55:15.281Z,0
2017-11-17T04:56:15.584Z,0
2017-11-17T04:57:15.792Z,0
2017-11-17T04:58:14.947Z,0
2017-11-17T04:59:15.482Z,0
2017-11-17T05:00:15.466Z,0
2017-11-17T05:01:14.913Z,0
2017-11-17T05:02:15.423Z,0
2017-11-17T05:03:14.889Z,0
2017-11-17T05:04:15.695Z,0
2017-11-17T05:05:15.103Z,0
2017-11-17T05:06:15.370Z,0
2017-11-17T05:07:15.082Z,0
2017-11-17T05:08:15.603Z,0
2017-11-17T05:09:15.040Z,0
2017-11-17T05:10:15.571Z,0
2017-11-17T05:11:14.725Z,0
2017-11-17T05:12:15.834Z,0
2017-11-17T05:13:14.720Z,0
2017-11-17T05:14:14.953Z,0
2017-11-17T05:15:15.214Z,0
2017-11-17T05:16:15.220Z,0
2017-11-17T05:17:14.644Z,0
2017-11-17T05:18:15.443Z,0
2017-11-17T05:19:14.599Z,0
2017-11-17T05:20:14.623Z,0
2017-11-17T05:21:14.854Z,0
2017-11-17T05:22:15.128Z,0
2017-11-17T05:23:15.102Z,0
2017-11-17T05:24:15.077Z,0
2017-11-17T05:25:14.516Z,0
2017-11-17T05:26:14.768Z,0
2017-11-17T05:27:15.026Z,0
2017-11-17T05:28:15.006Z,0
2017-11-17T05:29:14.995Z,0
2017-11-17T05:30:15.259Z,0
2017-11-17T05:31:14.974Z,0
2017-11-17T05:32:14.674Z,0
2017-11-17T05:33:14.948Z,0
2017-11-17T05:34:14.924Z,0
2017-11-17T05:35:15.237Z,0
2017-11-17T05:36:15.160Z,0
2017-11-17T05:37:14.596Z,0
2017-11-17T05:38:15.135Z,0
2017-11-17T05:39:14.586Z,0
2017-11-17T05:40:14.565Z,0
2017-11-17T05:41:14.828Z,0
2017-11-17T05:42:14.542Z,0
2017-11-17T05:43:15.323Z,0
2017-11-17T05:44:14.754Z,0
2017-11-17T05:45:14.771Z,0
2017-11-17T05:46:14.173Z,0
2017-11-17T05:47:14.159Z,0
2017-11-17T05:48:14.358Z,0
2017-11-17T05:49:14.140Z,0
2017-11-17T05:50:14.686Z,0
2017-11-17T05:51:14.646Z,0
2017-11-17T05:52:14.915Z,0
2017-11-17T05:53:15.212Z,0
2017-11-17T05:54:14.325Z,0
2017-11-17T05:55:14.307Z,0
2017-11-17T05:56:14.585Z,0
2017-11-17T05:57:14.584Z,0
2017-11-17T05:58:14.538Z,0
2017-11-17T05:59:14.529Z,0
2017-11-17T06:00:13.960Z,0
2017-11-17T06:01:13.934Z,0
2017-11-17T06:02:14.514Z,0
2017-11-17T06:03:13.922Z,0
2017-11-17T06:04:14.182Z,0
2017-11-17T06:05:14.156Z,0
2017-11-17T06:06:13.859Z,0
2017-11-17T06:07:14.114Z,0
2017-11-17T06:08:14.384Z,0
2017-11-17T06:09:13.809Z,0
2017-11-17T06:10:14.361Z,0
2017-11-17T06:11:14.063Z,0
2017-11-17T06:12:14.064Z,0
2017-11-17T06:13:13.762Z,0
2017-11-17T06:14:14.286Z,0
2017-11-17T06:15:13.718Z,0
2017-11-17T06:16:14.267Z,0
2017-11-17T06:17:13.964Z,0
2017-11-17T06:18:13.668Z,0
2017-11-17T06:19:14.496Z,0
2017-11-17T06:20:13.913Z,0
2017-11-17T06:21:13.898Z,0
2017-11-17T06:22:13.879Z,0
2017-11-17T06:23:13.873Z,0
2017-11-17T06:24:13.585Z,0
2017-11-17T06:25:13.555Z,0
2017-11-17T06:26:13.551Z,0
2017-11-17T06:27:13.815Z,0
2017-11-17T06:28:13.786Z,0
2017-11-17T06:29:15.016Z,0
2017-11-17T06:30:13.769Z,0
2017-11-17T06:31:14.315Z,0
2017-11-17T06:32:14.298Z,0
2017-11-17T06:33:14.001Z,0
2017-11-17T06:34:14.267Z,0
2017-11-17T06:35:13.947Z,0
2017-11-17T06:36:13.944Z,0
2017-11-17T06:37:13.946Z,0
2017-11-17T06:38:13.634Z,0
2017-11-17T06:39:13.616Z,0
2017-11-17T06:40:13.623Z,0
2017-11-17T06:41:13.867Z,0
2017-11-17T06:42:13.564Z,0
2017-11-17T06:43:13.554Z,0
2017-11-17T06:44:13.808Z,0
2017-11-17T06:45:13.799Z,0
2017-11-17T06:46:13.524Z,0
2017-11-17T06:47:13.763Z,0
2017-11-17T06:48:13.192Z,0
2017-11-17T06:49:13.475Z,0
2017-11-17T06:50:13.727Z,0
2017-11-17T06:51:13.715Z,0
2017-11-17T06:52:13.734Z,0
2017-11-17T06:53:13.667Z,0
2017-11-17T06:54:13.371Z,0
2017-11-17T06:55:13.366Z,0
2017-11-17T06:56:13.354Z,0
2017-11-17T06:57:14.186Z,0
2017-11-17T06:58:13.593Z,0
2017-11-17T06:59:13.033Z,0
2017-11-17T07:00:13.582Z,0
2017-11-17T07:01:13.295Z,0
2017-11-17T07:02:13.249Z,5
2017-11-17T07:03:13.265Z,5
2017-11-17T07:04:13.493Z,5
2017-11-17T07:05:13.222Z,5
2017-11-17T07:06:13.184Z,5
2017-11-17T07:07:13.726Z,5
2017-11-17T07:08:13.445Z,5
2017-11-17T07:09:13.691Z,5
2017-11-17T07:10:13.120Z,5
2017-11-17T07:11:12.829Z,5
2017-11-17T07:12:13.096Z,5
2017-11-17T07:13:13.079Z,10
2017-11-17T07:14:13.065Z,10
2017-11-17T07:15:13.089Z,10
2017-11-17T07:16:13.309Z,10
2017-11-17T07:17:13.294Z,10
2017-11-17T07:18:13.008Z,10
2017-11-17T07:19:13.269Z,10
2017-11-17T07:20:12.692Z,10
2017-11-17T07:21:13.517Z,10
2017-11-17T07:22:12.660Z,10
2017-11-17T07:23:12.931Z,10
2017-11-17T07:24:13.489Z,10
2017-11-17T07:25:13.192Z,10
2017-11-17T07:26:12.877Z,10
2017-11-17T07:27:13.132Z,10
2017-11-17T07:28:13.139Z,15
2017-11-17T07:29:13.101Z,15
2017-11-17T07:30:12.832Z,15
2017-11-17T07:31:12.537Z,15
2017-11-17T07:32:12.782Z,15
2017-11-17T07:33:12.785Z,15
2017-11-17T07:34:12.745Z,15
2017-11-17T07:35:13.294Z,15
2017-11-17T07:36:12.720Z,15
2017-11-17T07:37:12.703Z,15
2017-11-17T07:38:12.695Z,15
2017-11-17T07:39:13.253Z,15
2017-11-17T07:40:12.666Z,15
2017-11-17T07:41:12.924Z,15
2017-11-17T07:42:12.901Z,15
2017-11-17T07:43:12.621Z,15
2017-11-17T07:44:12.595Z,15
2017-11-17T07:45:12.296Z,15
2017-11-17T07:46:12.294Z,15
2017-11-17T07:47:12.561Z,15
2017-11-17T07:48:12.529Z,15
2017-11-17T07:49:12.235Z,15
2017-11-17T07:50:12.512Z,15
2017-11-17T07:51:12.759Z,15
2017-11-17T07:52:12.748Z,15
2017-11-17T07:53:12.453Z,15
2017-11-17T07:54:12.710Z,10
2017-11-17T07:55:12.696Z,10
2017-11-17T07:56:12.695Z,10
2017-11-17T07:57:12.658Z,10
2017-11-17T07:58:12.370Z,10
2017-11-17T07:59:12.944Z,10
2017-11-17T08:00:12.619Z,15
2017-11-17T08:01:12.615Z,15
2017-11-17T08:02:12.639Z,15
2017-11-17T08:03:12.561Z,10
2017-11-17T08:04:12.290Z,10
2017-11-17T08:05:12.606Z,10
2017-11-17T08:06:11.965Z,10
2017-11-17T08:07:12.513Z,10
2017-11-17T08:08:12.484Z,15
2017-11-17T08:09:12.485Z,15
2017-11-17T08:10:12.181Z,20
2017-11-17T08:11:12.443Z,20
2017-11-17T08:12:11.876Z,20
2017-11-17T08:13:12.420Z,20
2017-11-17T08:14:12.406Z,25
2017-11-17T08:15:12.102Z,30
2017-11-17T08:16:12.089Z,30
2017-11-17T08:17:12.105Z,35
2017-11-17T08:18:12.057Z,45
2017-11-17T08:19:12.317Z,55
2017-11-17T08:20:12.596Z,60
2017-11-17T08:21:12.015Z,60
2017-11-17T08:22:12.270Z,60
2017-11-17T08:23:12.552Z,60
2017-11-17T08:24:12.241Z,60
2017-11-17T08:25:12.221Z,65
2017-11-17T08:26:11.656Z,65
2017-11-17T08:27:11.636Z,65
2017-11-17T08:28:11.619Z,60
2017-11-17T08:29:11.889Z,65
2017-11-17T08:30:12.192Z,65
2017-11-17T08:31:11.596Z,70
2017-11-17T08:32:11.554Z,75
2017-11-17T08:33:12.388Z,70
2017-11-17T08:34:11.537Z,70
2017-11-17T08:35:11.814Z,75
2017-11-17T08:36:11.770Z,75
2017-11-17T08:37:12.068Z,75
2017-11-17T08:38:11.466Z,75
2017-11-17T08:39:11.449Z,70
2017-11-17T08:40:11.709Z,75
2017-11-17T08:41:12.005Z,80
2017-11-17T08:42:11.959Z,80
2017-11-17T08:43:11.389Z,80
2017-11-17T08:44:11.941Z,75
2017-11-17T08:45:11.913Z,70
2017-11-17T08:46:11.345Z,70
2017-11-17T08:47:12.175Z,70
2017-11-17T08:48:11.590Z,65
2017-11-17T08:49:11.574Z,65
2017-11-17T08:50:11.281Z,60
2017-11-17T08:51:11.546Z,60
2017-11-17T08:52:12.086Z,60
2017-11-17T08:53:11.817Z,55
2017-11-17T08:54:11.817Z,55
2017-11-17T08:55:11.781Z,55
2017-11-17T08:56:12.027Z,50
2017-11-17T08:57:11.178Z,50
2017-11-17T08:58:11.461Z,50
2017-11-17T08:59:11.424Z,50
2017-11-17T09:00:11.128Z,45
2017-11-17T09:01:11.408Z,45
2017-11-17T09:02:11.670Z,45
2017-11-17T09:03:11.102Z,45
2017-11-17T09:04:11.072Z,45
2017-11-17T09:05:11.886Z,40
2017-11-17T09:06:11.612Z,45
2017-11-17T09:07:11.862Z,50
2017-11-17T09:08:11.853Z,50
2017-11-17T09:09:11.263Z,60
2017-11-17T09:10:11.248Z,65
2017-11-17T09:11:11.244Z,70
2017-11-17T09:12:11.236Z,70
2017-11-17T09:13:10.925Z,70
2017-11-17T09:14:11.226Z,70
2017-11-17T09:15:10.911Z,70
2017-11-17T09:16:11.155Z,75
2017-11-17T09:17:11.157Z,80
2017-11-17T09:18:11.127Z,90
2017-11-17T09:19:11.437Z,90
2017-11-17T09:20:11.110Z,100
2017-11-17T09:21:10.817Z,95
2017-11-17T09:22:11.096Z,90
2017-11-17T09:23:11.339Z,85
2017-11-17T09:24:11.036Z,75
2017-11-17T09:25:11.306Z,70
2017-11-17T09:26:11.015Z,65
2017-11-17T09:27:11.304Z,60
2017-11-17T09:28:10.982Z,55
2017-11-17T09:29:11.270Z,55
2017-11-17T09:30:10.671Z,60
2017-11-17T09:31:10.657Z,65
2017-11-17T09:32:11.252Z,70
2017-11-17T09:33:11.184Z,75
2017-11-17T09:34:11.208Z,75
2017-11-17T09:35:11.437Z,75
2017-11-17T09:36:11.417Z,70
2017-11-17T09:37:11.120Z,70
2017-11-17T09:38:11.106Z,70
2017-11-17T09:39:10.538Z,60
2017-11-17T09:40:11.363Z,55
2017-11-17T09:41:10.787Z,50
2017-11-17T09:42:11.053Z,45
2017-11-17T09:43:11.331Z,45
2017-11-17T09:44:10.738Z,45
2017-11-17T09:45:11.294Z,45
2017-11-17T09:46:11.270Z,50
2017-11-17T09:47:10.980Z,55
2017-11-17T09:48:10.405Z,65
2017-11-17T09:49:10.668Z,65
2017-11-17T09:50:10.952Z,70
2017-11-17T09:51:10.643Z,65
2017-11-17T09:52:10.351Z,65
2017-11-17T09:53:11.171Z,65
2017-11-17T09:54:10.875Z,65
2017-11-17T09:55:10.584Z,65
2017-11-17T09:56:11.392Z,70
2017-11-17T09:57:10.843Z,75
2017-11-17T09:58:10.831Z,75
2017-11-17T09:59:10.537Z,80
2017-11-17T10:00:10.503Z,80
2017-11-17T10:01:10.770Z,80
2017-11-17T10:02:10.474Z,75
2017-11-17T10:03:10.200Z,70
2017-11-17T10:04:10.194Z,70
2017-11-17T10:05:10.725Z,80
2017-11-17T10:06:10.424Z,90
2017-11-17T10:07:10.399Z,105
2017-11-17T10:08:10.655Z,110
2017-11-17T10:09:10.926Z,110
2017-11-17T10:10:10.908Z,115
2017-11-17T10:11:10.628Z,115
2017-11-17T10:12:10.324Z,120
2017-11-17T10:13:10.081Z,110
2017-11-17T10:14:10.293Z,105
2017-11-17T10:15:10.008Z,100
2017-11-17T10:16:10.557Z,95
2017-11-17T10:17:10.265Z,90
2017-11-17T10:18:09.982Z,95
2017-11-17T10:19:10.277Z,100
2017-11-17T10:20:10.218Z,105
2017-11-17T10:21:09.916Z,105
2017-11-17T10:22:10.183Z,105
2017-11-17T10:23:10.170Z,110
2017-11-17T10:24:10.152Z,115
2017-11-17T10:25:10.692Z,125
2017-11-17T10:26:10.146Z,130
2017-11-17T10:27:10.107Z,150
2017-11-17T10:28:10.647Z,165
2017-11-17T10:29:09.801Z,175
2017-11-17T10:30:10.642Z,180
2017-11-17T10:31:10.053Z,180
2017-11-17T10:32:10.031Z,170
2017-11-17T10:33:10.296Z,155
2017-11-17T10:34:10.013Z,155
2017-11-17T10:35:10.270Z,160
2017-11-17T10:36:10.566Z,155
2017-11-17T10:37:09.687Z,150
2017-11-17T10:38:10.254Z,160
2017-11-17T10:39:10.226Z,175
2017-11-17T10:40:09.926Z,175
2017-11-17T10:41:09.652Z,180
2017-11-17T10:42:10.176Z,175
2017-11-17T10:43:10.151Z,170
2017-11-17T10:44:17.945Z,145
2017-11-17T10:45:09.849Z,130
2017-11-17T10:46:10.666Z,115
2017-11-17T10:47:09.539Z,95
2017-11-17T10:48:09.813Z,90
2017-11-17T10:49:10.351Z,90
2017-11-17T10:50:10.332Z,90
2017-11-17T10:51:10.377Z,90
2017-11-17T10:52:10.313Z,90
2017-11-17T10:53:10.050Z,95
2017-11-17T10:54:09.442Z,95
2017-11-17T10:55:09.992Z,90
2017-11-17T10:56:09.978Z,90
2017-11-17T10:57:09.966Z,90
2017-11-17T10:58:09.939Z,90
2017-11-17T10:59:09.939Z,90
2017-11-17T11:00:09.643Z,85
2017-11-17T11:01:09.363Z,80
2017-11-17T11:02:10.166Z,80
2017-11-17T11:03:10.170Z,80
2017-11-17T11:04:09.591Z,80
2017-11-17T11:05:09.568Z,85
2017-11-17T11:06:09.555Z,80
2017-11-17T11:07:09.536Z,70
2017-11-17T11:08:09.803Z,70
2017-11-17T11:09:09.514Z,70
2017-11-17T11:10:09.789Z,70
2017-11-17T11:11:09.772Z,75
2017-11-17T11:12:10.017Z,75
2017-11-17T11:13:09.453Z,70
2017-11-17T11:14:09.714Z,70
2017-11-17T11:15:09.419Z,70
2017-11-17T11:16:09.427Z,60
2017-11-17T11:17:09.122Z,55
2017-11-17T11:18:09.100Z,55
2017-11-17T11:19:09.376Z,60
2017-11-17T11:20:09.649Z,65
2017-11-17T11:21:09.619Z,60
2017-11-17T11:22:09.052Z,60
2017-11-17T11:23:09.308Z,60
2017-11-17T11:24:09.016Z,60
2017-11-17T11:25:09.562Z,55
2017-11-17T11:26:08.991Z,50
2017-11-17T11:27:10.101Z,50
2017-11-17T11:28:08.974Z,50
2017-11-17T11:29:09.498Z,50
2017-11-17T11:30:09.782Z,50
2017-11-17T11:31:09.478Z,50
2017-11-17T11:32:09.466Z,50
2017-11-17T11:33:09.166Z,50
2017-11-17T11:34:09.163Z,50
2017-11-17T11:35:09.411Z,50
2017-11-17T11:36:09.963Z,45
2017-11-17T11:37:09.393Z,45
2017-11-17T11:38:09.694Z,50
2017-11-17T11:39:09.399Z,55
2017-11-17T11:40:08.785Z,60
2017-11-17T11:41:09.071Z,65
2017-11-17T11:42:09.322Z,70
2017-11-17T11:43:09.318Z,70
2017-11-17T11:44:09.302Z,70
2017-11-17T11:45:08.990Z,70
2017-11-17T11:46:08.697Z,70
2017-11-17T11:47:09.532Z,65
2017-11-17T11:48:09.514Z,60
2017-11-17T11:49:08.944Z,60
2017-11-17T11:50:08.936Z,65
2017-11-17T11:51:09.192Z,70
2017-11-17T11:52:08.615Z,70
2017-11-17T11:53:09.448Z,70
2017-11-17T11:54:09.140Z,75
2017-11-17T11:55:08.871Z,75
2017-11-17T11:56:08.859Z,75
2017-11-17T11:57:08.811Z,80
2017-11-17T11:58:08.812Z,75
2017-11-17T11:59:08.532Z,80
2017-11-17T12:00:09.045Z,80
2017-11-17T12:01:08.761Z,75
2017-11-17T12:02:08.470Z,70
2017-11-17T12:03:08.458Z,70
2017-11-17T12:04:08.997Z,70
2017-11-17T12:05:08.726Z,70
2017-11-17T12:06:08.687Z,70
2017-11-17T12:07:08.394Z,70
2017-11-17T12:08:08.660Z,70
2017-11-17T12:09:08.389Z,70
2017-11-17T12:10:08.626Z,65
2017-11-17T12:11:08.340Z,65
2017-11-17T12:12:09.154Z,60
2017-11-17T12:13:08.582Z,55
2017-11-17T12:14:08.858Z,50
2017-11-17T12:15:08.280Z,50
2017-11-17T12:16:08.822Z,45
2017-11-17T12:17:09.105Z,50
2017-11-17T12:18:08.787Z,50
2017-11-17T12:19:08.526Z,50
2017-11-17T12:20:08.526Z,50
2017-11-17T12:21:08.757Z,55
2017-11-17T12:22:08.471Z,50
2017-11-17T12:23:09.006Z,50
2017-11-17T12:24:08.711Z,55
2017-11-17T12:25:08.692Z,50
2017-11-17T12:26:08.431Z,55
2017-11-17T12:27:08.383Z,60
2017-11-17T12:28:08.372Z,60
2017-11-17T12:29:08.651Z,55
2017-11-17T12:30:08.632Z,50
2017-11-17T12:31:08.053Z,50
2017-11-17T12:32:08.602Z,55
2017-11-17T12:33:08.295Z,55
2017-11-17T12:34:08.283Z,60
2017-11-17T12:35:08.275Z,60
2017-11-17T12:36:08.259Z,60
2017-11-17T12:37:08.241Z,60
2017-11-17T12:38:07.953Z,60
2017-11-17T12:39:08.531Z,60
2017-11-17T12:40:09.053Z,60
2017-11-17T12:41:08.750Z,55
2017-11-17T12:42:07.891Z,55
2017-11-17T12:43:08.435Z,55
2017-11-17T12:44:08.422Z,55
2017-11-17T12:45:08.122Z,55
2017-11-17T12:46:08.396Z,55
2017-11-17T12:47:08.372Z,60
2017-11-17T12:48:08.659Z,60
2017-11-17T12:49:07.799Z,65
2017-11-17T12:50:08.619Z,65
2017-11-17T12:51:07.760Z,60
2017-11-17T12:52:08.303Z,55
2017-11-17T12:53:08.316Z,55
2017-11-17T12:54:08.006Z,55
2017-11-17T12:55:08.285Z,55
2017-11-17T12:56:08.261Z,55
2017-11-17T12:57:08.247Z,60
2017-11-17T12:58:08.222Z,55
2017-11-17T12:59:08.508Z,55
2017-11-17T13:00:08.206Z,50
2017-11-17T13:01:08.198Z,50
2017-11-17T13:02:07.882Z,55
2017-11-17T13:03:08.152Z,55
2017-11-17T13:04:07.875Z,50
2017-11-17T13:05:07.855Z,50
2017-11-17T13:06:07.837Z,45
2017-11-17T13:07:07.814Z,40
2017-11-17T13:08:07.805Z,35
2017-11-17T13:09:08.067Z,35
2017-11-17T13:10:07.777Z,30
2017-11-17T13:11:07.765Z,30
2017-11-17T13:12:11.072Z,25
2017-11-17T13:13:08.012Z,25
2017-11-17T13:14:08.207Z,25
2017-11-17T13:15:07.703Z,25
2017-11-17T13:16:07.963Z,25
2017-11-17T13:17:07.681Z,25
2017-11-17T13:18:07.948Z,30
2017-11-17T13:19:07.649Z,30
2017-11-17T13:20:07.653Z,30
2017-11-17T13:21:07.620Z,30
2017-11-17T13:22:07.888Z,30
2017-11-17T13:23:07.589Z,30
2017-11-17T13:24:07.576Z,30
2017-11-17T13:25:07.281Z,30
2017-11-17T13:26:07.282Z,30
2017-11-17T13:27:08.107Z,30
2017-11-17T13:28:07.516Z,30
2017-11-17T13:29:07.798Z,30
2017-11-17T13:30:07.779Z,30
2017-11-17T13:31:07.754Z,30
2017-11-17T13:32:08.033Z,30
2017-11-17T13:33:07.450Z,30
2017-11-17T13:34:07.738Z,30
2017-11-17T13:35:07.137Z,30
2017-11-17T13:36:07.422Z,30
2017-11-17T13:37:07.126Z,25
2017-11-17T13:38:07.937Z,25
2017-11-17T13:39:07.368Z,25
2017-11-17T13:40:07.369Z,25
2017-11-17T13:41:07.373Z,25
2017-11-17T13:42:07.330Z,25
2017-11-17T13:43:07.870Z,25
2017-11-17T13:44:07.594Z,25
2017-11-17T13:45:07.559Z,25
2017-11-17T13:46:07.537Z,25
2017-11-17T13:47:07.252Z,25
2017-11-17T13:48:07.509Z,25
2017-11-17T13:49:07.264Z,25
2017-11-17T13:50:07.220Z,25
2017-11-17T13:51:07.497Z,25
2017-11-17T13:52:07.757Z,25
2017-11-17T13:53:07.167Z,30
2017-11-17T13:54:07.713Z,30
2017-11-17T13:55:07.416Z,30
2017-11-17T13:56:07.706Z,35
2017-11-17T13:57:07.391Z,45
2017-11-17T13:58:07.413Z,50
2017-11-17T13:59:07.377Z,45
2017-11-17T14:00:07.399Z,35
2017-11-17T14:01:07.646Z,30
2017-11-17T14:02:07.329Z,25
2017-11-17T14:03:07.595Z,25
2017-11-17T14:04:06.740Z,25
2017-11-17T14:05:07.013Z,25
2017-11-17T14:06:06.705Z,25
2017-11-17T14:07:07.528Z,25
2017-11-17T14:08:07.519Z,25
2017-11-17T14:09:06.950Z,25
2017-11-17T14:10:07.210Z,20
2017-11-17T14:11:07.484Z,20
2017-11-17T14:12:06.630Z,15
2017-11-17T14:13:07.438Z,15
2017-11-17T14:14:07.158Z,15
2017-11-17T14:15:07.180Z,15
2017-11-17T14:16:07.139Z,10
2017-11-17T14:17:06.827Z,10
2017-11-17T14:18:06.833Z,10
2017-11-17T14:19:06.818Z,10
2017-11-17T14:20:07.076Z,10
2017-11-17T14:21:06.788Z,15
2017-11-17T14:22:07.065Z,15
2017-11-17T14:23:06.760Z,15
2017-11-17T14:24:07.019Z,15
2017-11-17T14:25:07.001Z,20
2017-11-17T14:26:07.321Z,15
2017-11-17T14:27:07.310Z,15
2017-11-17T14:28:06.957Z,15
2017-11-17T14:29:06.925Z,15
2017-11-17T14:30:07.013Z,10